createdAt,value
2019-02-14T00:01:44.655Z,9.30
2019-02-14T00:04:15.292Z,9.57
2019-02-14T00:06:46.123Z,10.60
2019-02-14T00:09:16.679Z,9.43
2019-02-14T00:11:47.236Z,9.20
2019-02-14T00:14:17.764Z,9.77
2019-02-14T00:16:48.251Z,10.63
2019-02-14T00:19:18.836Z,9.83
2019-02-14T00:21:49.462Z,10.20
2019-02-14T00:24:20.019Z,10.63
2019-02-14T00:26:50.604Z,10.13
2019-02-14T00:29:21.549Z,10.07
2019-02-14T00:31:52.191Z,10.30
2019-02-14T00:34:22.796Z,9.50
2019-02-14T00:36:53.487Z,10.50
2019-02-14T00:39:24.163Z,10.03
2019-02-14T00:41:54.705Z,9.40
2019-02-14T00:44:25.290Z,10.60
2019-02-14T00:46:56.117Z,9.60
2019-02-14T00:49:26.743Z,9.53
2019-02-14T00:51:57.452Z,9.87
2019-02-14T00:54:27.970Z,9.80
2019-02-14T00:56:58.570Z,10.17
2019-02-14T00:59:29.173Z,9.77
2019-02-14T01:02:00.015Z,9.03
2019-02-14T01:04:30.507Z,9.53
2019-02-14T01:07:01.122Z,9.90
2019-02-14T01:09:31.862Z,10.47
2019-02-14T01:12:02.540Z,9.17
2019-02-14T01:14:33.094Z,9.67
2019-02-14T01:17:03.684Z,9.47
2019-02-14T01:19:34.321Z,8.87
2019-02-14T01:22:05.165Z,7.87
2019-02-14T01:24:35.807Z,9.00
2019-02-14T01:27:07.438Z,9.03
2019-02-14T01:29:38.017Z,9.60
2019-02-14T01:32:08.863Z,9.50
2019-02-14T01:34:39.537Z,9.70
2019-02-14T01:37:10.088Z,8.90
2019-02-14T01:39:41.415Z,8.30
2019-02-14T01:42:11.949Z,9.17
2019-02-14T01:44:42.972Z,9.17
2019-02-14T01:47:13.454Z,9.10
2019-02-14T01:49:43.947Z,9.67
2019-02-14T01:52:14.683Z,8.80
2019-02-14T01:54:46.558Z,9.23
2019-02-14T01:57:16.978Z,9.37
2019-02-14T01:59:47.532Z,8.07
2019-02-14T02:02:18.110Z,9.17
2019-02-14T02:04:48.758Z,9.63
2019-02-14T02:07:19.242Z,8.57
2019-02-14T02:09:50.062Z,9.07
2019-02-14T02:12:20.660Z,8.40
2019-02-14T02:14:51.201Z,8.23
2019-02-14T02:17:21.814Z,9.40
2019-02-14T02:19:52.453Z,8.90
2019-02-14T02:22:23.272Z,8.57
2019-02-14T02:24:53.919Z,9.10
2019-02-14T02:27:24.654Z,8.43
2019-02-14T02:29:55.293Z,8.00
2019-02-14T02:32:26.014Z,8.50
2019-02-14T02:34:56.744Z,7.60
2019-02-14T02:37:27.392Z,8.03
2019-02-14T02:39:58.116Z,8.63
2019-02-14T02:42:28.712Z,7.93
2019-02-14T02:44:59.239Z,8.83
2019-02-14T02:47:29.975Z,8.40
2019-02-14T02:50:00.608Z,8.30
2019-02-14T02:52:31.259Z,8.07
2019-02-14T02:55:01.770Z,8.67
2019-02-14T02:57:32.836Z,8.33
2019-02-14T03:00:08.525Z,8.60
2019-02-14T03:02:39.426Z,8.67
2019-02-14T03:05:11.491Z,8.67
2019-02-14T03:07:42.159Z,8.47
2019-02-14T03:10:13.311Z,7.40
2019-02-14T03:12:43.949Z,8.23
2019-02-14T03:15:14.639Z,8.67
2019-02-14T03:17:45.266Z,7.27
2019-02-14T03:20:15.884Z,8.20
2019-02-14T03:22:46.434Z,7.73
2019-02-14T03:25:18.482Z,8.33
2019-02-14T03:27:49.122Z,7.83
2019-02-14T03:30:19.640Z,8.57
2019-02-14T03:32:50.387Z,8.10
2019-02-14T03:35:20.920Z,8.13
2019-02-14T03:37:51.493Z,9.17
2019-02-14T03:40:22.089Z,7.73
2019-02-14T03:42:54.080Z,7.60
2019-02-14T03:45:24.780Z,8.23
2019-02-14T03:47:55.284Z,8.40
2019-02-14T03:50:26.022Z,8.27
2019-02-14T03:52:56.763Z,7.53
2019-02-14T03:55:27.348Z,7.63
2019-02-14T03:57:57.870Z,7.10
2019-02-14T04:00:28.728Z,7.80
2019-02-14T04:02:59.233Z,8.60
2019-02-14T04:05:29.817Z,7.40
2019-02-14T04:08:00.359Z,7.43
2019-02-14T04:10:30.994Z,7.53
2019-02-14T04:13:01.482Z,7.47
2019-02-14T04:15:32.037Z,6.47
2019-02-14T04:18:05.668Z,7.37
2019-02-14T04:20:36.164Z,7.20
2019-02-14T04:23:06.888Z,8.87
2019-02-14T04:25:37.417Z,6.13
2019-02-14T04:28:08.063Z,7.07
2019-02-14T04:30:38.563Z,7.40
2019-02-14T04:33:09.006Z,7.33
2019-02-14T04:35:39.569Z,6.63
2019-02-14T04:38:10.119Z,8.10
2019-02-14T04:40:40.526Z,7.50
2019-02-14T04:43:11.078Z,7.33
2019-02-14T04:45:41.652Z,6.00
2019-02-14T04:48:12.493Z,6.77
2019-02-14T04:50:43.126Z,7.07
2019-02-14T04:53:13.884Z,7.33
2019-02-14T04:55:44.409Z,7.87
2019-02-14T04:58:15.105Z,7.23
2019-02-14T05:00:45.642Z,7.30
2019-02-14T05:03:16.395Z,7.00
2019-02-14T05:05:47.095Z,7.77
2019-02-14T05:08:17.851Z,7.87
2019-02-14T05:10:51.453Z,8.33
2019-02-14T05:13:22.064Z,9.13
2019-02-14T05:15:52.536Z,8.57
2019-02-14T05:18:23.230Z,8.07
2019-02-14T05:20:53.983Z,7.10
2019-02-14T05:23:24.679Z,8.50
2019-02-14T05:25:55.235Z,7.50
2019-02-14T05:28:25.985Z,7.53
2019-02-14T05:30:56.908Z,7.50
2019-02-14T05:33:27.459Z,8.10
2019-02-14T05:35:58.002Z,7.70
2019-02-14T05:38:28.625Z,7.33
2019-02-14T05:40:59.447Z,8.27
2019-02-14T05:43:30.263Z,7.77
2019-02-14T05:46:00.895Z,7.50
2019-02-14T05:48:31.573Z,8.30
2019-02-14T05:51:02.268Z,8.50
2019-02-14T05:53:33.877Z,8.23
2019-02-14T05:56:04.561Z,6.87
2019-02-14T05:58:35.487Z,7.87
2019-02-14T06:01:06.255Z,7.87
2019-02-14T06:03:36.959Z,8.53
2019-02-14T06:06:07.573Z,7.60
2019-02-14T06:08:38.309Z,8.50
2019-02-14T06:11:09.095Z,8.13
2019-02-14T06:13:39.714Z,8.23
2019-02-14T06:16:10.545Z,8.50
2019-02-14T06:18:41.151Z,7.77
2019-02-14T06:21:11.783Z,9.43
2019-02-14T06:23:42.703Z,8.07
2019-02-14T06:26:14.248Z,7.33
2019-02-14T06:28:45.032Z,7.77
2019-02-14T06:31:15.631Z,7.73
2019-02-14T06:33:46.369Z,6.50
2019-02-14T06:36:17.155Z,8.90
2019-02-14T06:38:47.848Z,8.33
2019-02-14T06:41:18.552Z,8.47
2019-02-14T06:43:49.097Z,8.20
2019-02-14T06:46:19.704Z,8.37
2019-02-14T06:48:50.515Z,8.30
2019-02-14T06:51:21.155Z,8.93
2019-02-14T06:53:51.978Z,7.17
2019-02-14T06:56:22.515Z,8.07
2019-02-14T06:58:53.115Z,8.17
2019-02-14T07:01:24.760Z,7.50
2019-02-14T07:03:55.500Z,9.57
2019-02-14T07:06:26.241Z,9.23
2019-02-14T07:08:57.182Z,8.90
2019-02-14T07:11:27.835Z,7.93
2019-02-14T07:13:58.835Z,8.30
2019-02-14T07:16:29.615Z,9.33
2019-02-14T07:19:00.215Z,9.57
2019-02-14T07:21:30.681Z,8.07
2019-02-14T07:24:01.251Z,9.57
2019-02-14T07:26:32.085Z,8.43
2019-02-14T07:29:02.737Z,7.67
2019-02-14T07:31:34.372Z,9.70
2019-02-14T07:34:05.111Z,8.50
2019-02-14T07:36:35.868Z,9.37
2019-02-14T07:39:08.018Z,8.00
2019-02-14T07:41:38.770Z,9.80
2019-02-14T07:44:09.290Z,9.30
2019-02-14T07:46:40.034Z,8.80
2019-02-14T07:49:10.434Z,10.07
2019-02-14T07:51:41.190Z,9.97
2019-02-14T07:54:12.026Z,8.17
2019-02-14T07:56:42.802Z,10.03
2019-02-14T07:59:13.353Z,6.43
2019-02-14T08:01:44.034Z,8.27
2019-02-14T08:04:14.532Z,7.97
2019-02-14T08:06:45.264Z,9.33
2019-02-14T08:09:15.981Z,9.43
2019-02-14T08:11:46.635Z,10.10
2019-02-14T08:14:17.139Z,10.60
2019-02-14T08:16:47.801Z,8.37
2019-02-14T08:19:18.311Z,7.43
2019-02-14T08:21:49.060Z,8.83
2019-02-14T08:24:19.678Z,9.40
2019-02-14T08:26:50.535Z,8.80
2019-02-14T08:29:21.126Z,8.93
2019-02-14T08:31:51.984Z,8.00
2019-02-14T08:34:22.512Z,8.63
2019-02-14T08:36:53.231Z,9.10
2019-02-14T08:39:23.942Z,8.77
2019-02-14T08:41:54.620Z,7.50
2019-02-14T08:44:25.336Z,9.30
2019-02-14T08:46:55.817Z,9.63
2019-02-14T08:49:26.505Z,9.67
2019-02-14T08:51:57.050Z,10.00
2019-02-14T08:54:27.773Z,9.10
2019-02-14T08:56:58.400Z,9.73
2019-02-14T08:59:28.988Z,8.80
2019-02-14T09:01:59.727Z,9.70
2019-02-14T09:04:30.615Z,10.00
2019-02-14T09:07:01.250Z,9.50
2019-02-14T09:09:31.955Z,9.53
2019-02-14T09:12:02.712Z,9.53
2019-02-14T09:14:33.458Z,10.07
2019-02-14T09:17:04.290Z,10.13
2019-02-14T09:19:35.010Z,8.60
2019-02-14T09:22:05.665Z,8.53
2019-02-14T09:24:36.325Z,8.73
2019-02-14T09:27:07.245Z,9.17
2019-02-14T09:29:37.951Z,9.00
2019-02-14T09:32:08.626Z,9.37
2019-02-14T09:34:39.164Z,9.57
2019-02-14T09:37:09.706Z,9.27
2019-02-14T09:39:41.100Z,7.63
2019-02-14T09:42:11.913Z,9.13
2019-02-14T09:44:42.619Z,9.50
2019-02-14T09:47:13.226Z,8.83
2019-02-14T09:49:43.917Z,6.57
2019-02-14T09:52:14.524Z,6.67
2019-02-14T09:54:45.285Z,8.43
2019-02-14T09:57:15.920Z,8.63
2019-02-14T09:59:46.596Z,9.20
2019-02-14T10:02:17.172Z,8.33
2019-02-14T10:04:47.796Z,8.80
2019-02-14T10:07:18.668Z,8.90
2019-02-14T10:09:49.367Z,8.27
2019-02-14T10:12:19.980Z,8.03
2019-02-14T10:14:50.773Z,9.20
2019-02-14T10:17:22.458Z,9.03
2019-02-14T10:19:53.545Z,8.73
2019-02-14T10:22:24.280Z,8.30
2019-02-14T10:24:54.818Z,9.07
2019-02-14T10:27:25.426Z,9.23
2019-02-14T10:29:56.066Z,6.93
2019-02-14T10:32:26.770Z,8.53
2019-02-14T10:34:57.329Z,8.90
2019-02-14T10:37:28.021Z,8.17
2019-02-14T10:39:58.741Z,8.17
2019-02-14T10:42:29.318Z,6.97
2019-02-14T10:44:59.985Z,8.07
2019-02-14T10:47:30.521Z,8.53
2019-02-14T10:50:01.042Z,8.20
2019-02-14T10:52:31.738Z,7.00
2019-02-14T10:55:02.402Z,8.50
2019-02-14T10:57:32.861Z,9.10
2019-02-14T11:00:04.323Z,8.73
2019-02-14T11:02:36.743Z,8.50
2019-02-14T11:05:07.482Z,8.93
2019-02-14T11:07:38.105Z,8.83
2019-02-14T11:10:09.243Z,7.50
2019-02-14T11:12:41.005Z,8.57
2019-02-14T11:15:13.034Z,6.03
2019-02-14T11:17:43.665Z,8.10
2019-02-14T11:20:14.677Z,8.70
2019-02-14T11:22:45.364Z,8.27
2019-02-14T11:25:19.092Z,8.37
2019-02-14T11:27:49.637Z,6.50
2019-02-14T11:30:20.264Z,7.40
2019-02-14T11:32:50.975Z,8.17
2019-02-14T11:35:21.915Z,8.63
2019-02-14T11:37:52.549Z,8.70
2019-02-14T11:40:23.358Z,9.07
2019-02-14T11:42:54.130Z,8.40
2019-02-14T11:45:25.039Z,9.20
2019-02-14T11:47:55.600Z,8.93
2019-02-14T11:50:26.275Z,7.50
2019-02-14T11:52:57.155Z,9.80
2019-02-14T11:55:27.866Z,9.57
2019-02-14T11:57:58.508Z,9.13
2019-02-14T12:00:29.332Z,8.33
2019-02-14T12:02:59.951Z,8.70
2019-02-14T12:05:30.705Z,9.27
2019-02-14T12:08:01.306Z,9.50
2019-02-14T12:10:31.896Z,9.20
2019-02-14T12:13:02.529Z,8.20
2019-02-14T12:15:33.294Z,8.10
2019-02-14T12:18:04.082Z,8.23
2019-02-14T12:20:35.113Z,8.20
2019-02-14T12:23:05.972Z,8.90
2019-02-14T12:25:36.664Z,9.03
2019-02-14T12:28:07.270Z,8.80
2019-02-14T12:30:38.006Z,9.30
2019-02-14T12:33:08.672Z,7.03
2019-02-14T12:35:40.463Z,7.00
2019-02-14T12:38:12.305Z,9.63
2019-02-14T12:40:42.930Z,8.00
2019-02-14T12:43:13.651Z,9.30
2019-02-14T12:45:44.380Z,8.20
2019-02-14T12:48:15.067Z,9.53
2019-02-14T12:50:45.663Z,8.20
2019-02-14T12:53:16.370Z,6.30
2019-02-14T12:55:47.796Z,7.93
2019-02-14T12:58:18.903Z,9.20
2019-02-14T13:00:49.452Z,9.13
2019-02-14T13:03:20.082Z,9.43
2019-02-14T13:05:50.764Z,8.87
2019-02-14T13:08:22.629Z,9.07
2019-02-14T13:10:53.305Z,8.70
2019-02-14T13:13:24.044Z,9.13
2019-02-14T13:15:54.646Z,9.60
2019-02-14T13:18:25.304Z,8.93
2019-02-14T13:20:57.115Z,9.23
2019-02-14T13:23:27.704Z,9.07
2019-02-14T13:25:58.344Z,9.13
2019-02-14T13:28:29.210Z,8.93
2019-02-14T13:31:00.066Z,8.33
2019-02-14T13:33:30.804Z,9.10
2019-02-14T13:36:01.343Z,8.60
2019-02-14T13:38:31.783Z,8.93
2019-02-14T13:41:02.303Z,7.47
2019-02-14T13:43:33.083Z,8.10
2019-02-14T13:46:03.850Z,8.73
2019-02-14T13:48:34.590Z,8.67
2019-02-14T13:51:05.307Z,7.23
2019-02-14T13:53:36.863Z,5.80
2019-02-14T13:56:07.463Z,9.07
2019-02-14T13:58:38.065Z,10.17
2019-02-14T14:01:08.848Z,7.70
2019-02-14T14:03:39.422Z,8.47
2019-02-14T14:06:10.012Z,8.70
2019-02-14T14:08:41.557Z,8.67
2019-02-14T14:11:12.207Z,8.40
2019-02-14T14:13:43.656Z,7.67
2019-02-14T14:16:14.276Z,7.17
2019-02-14T14:18:44.817Z,8.40
2019-02-14T14:21:15.690Z,7.17
2019-02-14T14:23:46.205Z,9.43
2019-02-14T14:26:16.923Z,8.87
2019-02-14T14:28:47.653Z,7.40
2019-02-14T14:31:18.169Z,9.13
2019-02-14T14:33:48.664Z,9.30
2019-02-14T14:36:19.258Z,8.63
2019-02-14T14:38:49.993Z,9.83
2019-02-14T14:41:20.666Z,9.40
2019-02-14T14:44:10.152Z,10.43
2019-02-14T14:47:00.121Z,11.00
2019-02-14T14:49:30.651Z,9.80
2019-02-14T14:52:01.433Z,9.63
2019-02-14T14:54:31.973Z,10.23
2019-02-14T14:57:02.660Z,10.83
2019-02-14T14:59:33.252Z,11.43
2019-02-14T15:02:04.038Z,11.60
2019-02-14T15:04:37.790Z,10.93
2019-02-14T15:07:08.578Z,11.97
2019-02-14T15:09:39.344Z,12.10
2019-02-14T15:12:10.275Z,12.30
2019-02-14T15:14:41.044Z,10.83
2019-02-14T15:17:11.819Z,11.17
2019-02-14T15:19:42.673Z,11.80
2019-02-14T15:22:13.275Z,11.67
2019-02-14T15:24:44.050Z,11.60
2019-02-14T15:27:14.973Z,12.80
2019-02-14T15:29:45.787Z,12.73
2019-02-14T15:32:16.464Z,13.30
2019-02-14T15:34:47.113Z,13.27
2019-02-14T15:37:18.031Z,14.50
2019-02-14T15:39:48.932Z,15.70
2019-02-14T15:42:19.993Z,16.83
2019-02-14T15:44:51.427Z,19.83
2019-02-14T15:47:21.909Z,20.57
2019-02-14T15:49:52.593Z,18.17
2019-02-14T15:52:23.352Z,19.57
2019-02-14T15:54:55.681Z,19.17
2019-02-14T15:57:26.443Z,20.70
2019-02-14T15:59:59.982Z,19.83
2019-02-14T16:02:31.088Z,17.83
2019-02-14T16:05:02.945Z,18.30
2019-02-14T16:07:33.676Z,20.13
2019-02-14T16:10:05.869Z,19.13
2019-02-14T16:12:37.093Z,18.43
2019-02-14T16:15:09.163Z,21.87
2019-02-14T16:17:40.293Z,22.13
2019-02-14T16:20:11.257Z,20.70
2019-02-14T16:22:43.640Z,21.27
2019-02-14T16:25:14.341Z,18.13
2019-02-14T16:27:48.104Z,20.37
2019-02-14T16:30:18.775Z,25.60
2019-02-14T16:32:49.964Z,31.23
2019-02-14T16:35:20.635Z,30.50
2019-02-14T16:37:51.641Z,36.97
2019-02-14T16:40:27.787Z,36.23
2019-02-14T16:42:55.280Z,39.47
2019-02-14T16:45:26.172Z,37.27
2019-02-14T16:47:56.910Z,37.80
2019-02-14T16:50:27.712Z,37.17
2019-02-14T16:52:58.344Z,37.20
2019-02-14T16:55:29.186Z,38.07
2019-02-14T16:57:59.764Z,36.13
2019-02-14T17:00:30.372Z,35.83
2019-02-14T17:03:01.134Z,36.20
2019-02-14T17:05:31.912Z,38.77
2019-02-14T17:08:02.590Z,46.40
2019-02-14T17:10:36.967Z,43.60
2019-02-14T17:13:05.753Z,43.67
2019-02-14T17:15:36.903Z,42.70
2019-02-14T17:18:07.420Z,45.40
2019-02-14T17:20:38.206Z,39.90
2019-02-14T17:23:09.131Z,39.73
2019-02-14T17:25:40.042Z,40.30
2019-02-14T17:28:10.756Z,39.37
2019-02-14T17:30:41.815Z,39.77
2019-02-14T17:33:12.471Z,39.90
2019-02-14T17:35:43.080Z,38.03
2019-02-14T17:38:13.745Z,38.23
2019-02-14T17:40:46.383Z,39.00
2019-02-14T17:43:16.988Z,37.73
2019-02-14T17:45:47.874Z,39.37
2019-02-14T17:48:18.801Z,40.73
2019-02-14T17:50:49.651Z,41.03
2019-02-14T17:53:20.234Z,43.17
2019-02-14T17:55:50.990Z,40.83
2019-02-14T17:58:21.620Z,36.57
2019-02-14T18:00:52.456Z,35.77
2019-02-14T18:03:23.146Z,35.50
2019-02-14T18:05:54.127Z,35.23
2019-02-14T18:08:24.964Z,38.63
2019-02-14T18:10:55.953Z,44.83
2019-02-14T18:13:27.352Z,55.03
2019-02-14T18:16:00.120Z,67.17
2019-02-14T18:18:30.972Z,63.03
2019-02-14T18:21:01.682Z,51.67
2019-02-14T18:23:32.553Z,42.57
2019-02-14T18:26:03.222Z,39.07
2019-02-14T18:28:33.994Z,33.80
2019-02-14T18:31:05.952Z,32.40
2019-02-14T18:33:36.804Z,34.83
2019-02-14T18:36:07.533Z,29.57
2019-02-14T18:38:38.296Z,27.60
2019-02-14T18:41:09.213Z,29.80
2019-02-14T18:43:39.944Z,27.90
2019-02-14T18:46:11.083Z,28.70
2019-02-14T18:48:41.893Z,29.57
2019-02-14T18:51:15.152Z,29.93
2019-02-14T18:53:45.996Z,40.07
2019-02-14T18:56:16.794Z,35.30
2019-02-14T18:58:47.515Z,45.00
2019-02-14T19:01:27.633Z,44.80
2019-02-14T19:03:58.454Z,45.70
2019-02-14T19:06:29.453Z,44.23
2019-02-14T19:09:00.394Z,40.20
2019-02-14T19:11:31.538Z,40.23
2019-02-14T19:14:02.343Z,41.60
2019-02-14T19:16:33.303Z,40.53
2019-02-14T19:19:04.234Z,38.80
2019-02-14T19:21:35.084Z,38.10
2019-02-14T19:24:06.173Z,39.83
2019-02-14T19:26:37.104Z,39.37
2019-02-14T19:29:08.019Z,42.73
2019-02-14T19:31:39.053Z,42.37
2019-02-14T19:34:09.903Z,42.73
2019-02-14T19:36:40.563Z,41.67
2019-02-14T19:39:11.417Z,43.43
2019-02-14T19:41:42.258Z,57.00
2019-02-14T19:44:13.113Z,52.27
2019-02-14T19:46:44.013Z,41.23
2019-02-14T19:49:15.153Z,36.57
2019-02-14T19:51:46.974Z,37.87
2019-02-14T19:54:17.894Z,40.13
2019-02-14T19:56:48.938Z,45.37
2019-02-14T19:59:19.814Z,40.03
2019-02-14T20:01:50.735Z,41.57
2019-02-14T20:04:21.695Z,44.43
2019-02-14T20:06:52.632Z,46.40
2019-02-14T20:09:23.652Z,46.03
2019-02-14T20:11:54.592Z,44.37
2019-02-14T20:14:25.450Z,44.93
2019-02-14T20:16:57.330Z,43.50
2019-02-14T20:19:28.675Z,41.53
2019-02-14T20:22:00.952Z,46.43
2019-02-14T20:24:31.576Z,46.00
2019-02-14T20:27:02.732Z,47.60
2019-02-14T20:29:33.653Z,48.83
2019-02-14T20:32:05.033Z,46.90
2019-02-14T20:34:37.527Z,43.53
2019-02-14T20:37:09.482Z,45.00
2019-02-14T20:39:40.563Z,42.83
2019-02-14T20:42:11.486Z,43.33
2019-02-14T20:44:42.384Z,46.80
2019-02-14T20:47:13.109Z,45.83
2019-02-14T20:49:44.056Z,44.07
2019-02-14T20:52:14.928Z,45.13
2019-02-14T20:54:45.534Z,46.70
2019-02-14T20:57:16.336Z,44.57
2019-02-14T20:59:47.254Z,44.20
2019-02-14T21:02:18.066Z,44.73
2019-02-14T21:04:49.407Z,44.53
2019-02-14T21:07:20.445Z,43.30
2019-02-14T21:09:51.686Z,42.93
2019-02-14T21:12:23.605Z,42.80
2019-02-14T21:14:55.054Z,42.93
2019-02-14T21:17:26.011Z,40.40
2019-02-14T21:19:57.195Z,41.23
2019-02-14T21:22:28.422Z,42.40
2019-02-14T21:24:59.538Z,43.90
2019-02-14T21:27:30.373Z,41.67
2019-02-14T21:30:01.073Z,44.90
2019-02-14T21:32:32.006Z,42.30
2019-02-14T21:35:02.867Z,43.43
2019-02-14T21:37:33.753Z,43.90
2019-02-14T21:40:05.145Z,44.00
2019-02-14T21:42:36.151Z,43.93
2019-02-14T21:45:08.487Z,43.53
2019-02-14T21:47:39.276Z,42.70
2019-02-14T21:50:10.815Z,40.53
2019-02-14T21:52:41.709Z,39.63
2019-02-14T21:55:12.526Z,37.07
2019-02-14T21:57:43.343Z,37.20
2019-02-14T22:00:16.620Z,36.30
2019-02-14T22:02:47.531Z,32.63
2019-02-14T22:05:23.965Z,36.87
2019-02-14T22:07:50.830Z,34.30
2019-02-14T22:10:21.486Z,34.17
2019-02-14T22:12:52.190Z,34.13
2019-02-14T22:15:22.761Z,33.60
2019-02-14T22:17:53.389Z,33.03
2019-02-14T22:20:24.232Z,32.57
2019-02-14T22:22:54.844Z,39.40
2019-02-14T22:25:25.693Z,38.63
2019-02-14T22:27:56.516Z,32.57
2019-02-14T22:30:27.347Z,31.10
2019-02-14T22:32:58.067Z,33.10
2019-02-14T22:35:28.846Z,43.20
2019-02-14T22:37:59.814Z,31.07
2019-02-14T22:40:30.427Z,30.00
2019-02-14T22:43:00.989Z,30.37
2019-02-14T22:45:31.546Z,32.60
2019-02-14T22:48:02.176Z,40.13
2019-02-14T22:50:32.926Z,37.00
2019-02-14T22:53:03.601Z,31.77
2019-02-14T22:55:34.277Z,32.00
2019-02-14T22:58:04.962Z,30.37
2019-02-14T23:00:42.764Z,30.23
2019-02-14T23:03:13.324Z,30.20
2019-02-14T23:05:44.761Z,31.40
2019-02-14T23:08:16.474Z,32.27
2019-02-14T23:10:47.005Z,35.97
2019-02-14T23:13:17.682Z,38.30
2019-02-14T23:15:48.676Z,35.07
2019-02-14T23:18:19.413Z,34.43
2019-02-14T23:20:50.985Z,33.37
2019-02-14T23:23:21.886Z,34.67
2019-02-14T23:25:52.466Z,33.43
2019-02-14T23:28:23.086Z,32.93
2019-02-14T23:30:53.993Z,36.47
2019-02-14T23:33:24.934Z,35.73
2019-02-14T23:35:55.772Z,33.50
2019-02-14T23:38:26.341Z,35.97
2019-02-14T23:40:57.043Z,31.50
2019-02-14T23:43:27.588Z,29.93
2019-02-14T23:45:58.162Z,29.67
2019-02-14T23:48:29.857Z,29.93
2019-02-14T23:51:00.672Z,31.10
2019-02-14T23:53:31.412Z,31.43
2019-02-14T23:56:02.064Z,33.20
2019-02-14T23:58:33.091Z,30.37
